createdAt,value
2022-11-28T00:01:00.931Z,131.34
2022-11-28T00:06:07.720Z,129.28
2022-11-28T00:11:14.843Z,129.20
2022-11-28T00:16:21.719Z,131.39
2022-11-28T00:21:25.117Z,124.74
2022-11-28T00:26:30.040Z,127.45
2022-11-28T00:31:36.518Z,132.08
2022-11-28T00:36:39.920Z,122.87
2022-11-28T00:41:43.986Z,119.03
2022-11-28T00:46:48.635Z,114.83
2022-11-28T00:51:51.867Z,108.98
2022-11-28T00:56:57.367Z,107.71
2022-11-28T01:02:02.008Z,104.61
2022-11-28T01:07:05.269Z,109.81
2022-11-28T01:12:10.823Z,109.95
2022-11-28T01:17:17.665Z,109.65
2022-11-28T01:22:23.351Z,112.32
2022-11-28T01:27:28.854Z,110.05
2022-11-28T01:32:35.684Z,103.66
2022-11-28T01:37:39.410Z,105.65
2022-11-28T01:42:45.121Z,104.21
2022-11-28T01:47:52.972Z,108.37
2022-11-28T01:52:59.034Z,105.62
2022-11-28T01:58:02.676Z,104.76
2022-11-28T02:03:10.986Z,103.96
2022-11-28T02:08:14.247Z,105.33
2022-11-28T02:13:31.270Z,109.37
2022-11-28T02:18:50.412Z,107.46
2022-11-28T02:24:12.587Z,104.10
2022-11-28T02:29:43.425Z,103.24
2022-11-28T02:34:56.385Z,105.57
2022-11-28T02:40:07.598Z,101.12
2022-11-28T02:45:20.879Z,104.91
2022-11-28T02:50:28.525Z,99.61
2022-11-28T02:55:32.173Z,98.12
2022-11-28T03:00:41.360Z,87.46
2022-11-28T03:05:53.023Z,84.08
2022-11-28T03:11:06.150Z,83.26
2022-11-28T03:16:16.772Z,89.54
2022-11-28T03:21:26.910Z,96.25
2022-11-28T03:26:38.852Z,97.03
2022-11-28T03:31:49.630Z,92.86
2022-11-28T03:37:00.882Z,87.62
2022-11-28T03:42:10.780Z,88.77
2022-11-28T03:47:14.071Z,92.00
2022-11-28T03:52:25.264Z,91.27
2022-11-28T03:57:34.505Z,92.18
2022-11-28T04:02:44.653Z,89.75
2022-11-28T04:07:55.491Z,91.03
2022-11-28T04:13:02.701Z,93.78
2022-11-28T04:18:20.009Z,93.27
2022-11-28T04:23:27.205Z,90.82
2022-11-28T04:28:34.221Z,94.23
2022-11-28T04:33:45.202Z,90.82
2022-11-28T04:38:56.496Z,87.55
2022-11-28T04:44:08.959Z,89.51
2022-11-28T04:49:12.844Z,88.54
2022-11-28T04:54:24.004Z,90.31
2022-11-28T04:59:29.539Z,97.24
2022-11-28T05:04:35.946Z,98.96
2022-11-28T05:09:40.555Z,100.39
2022-11-28T05:14:46.218Z,90.48
2022-11-28T05:19:49.759Z,94.74
2022-11-28T05:24:56.492Z,87.01
2022-11-28T05:30:01.913Z,87.96
2022-11-28T05:35:06.363Z,94.16
2022-11-28T05:40:11.300Z,93.04
2022-11-28T05:45:14.599Z,93.35
2022-11-28T05:50:17.859Z,90.33
2022-11-28T05:55:22.555Z,89.52
2022-11-28T06:00:26.095Z,89.16
2022-11-28T06:05:42.725Z,89.44
2022-11-28T06:10:56.691Z,85.40
2022-11-28T06:15:59.925Z,85.15
2022-11-28T06:21:03.815Z,79.10
2022-11-28T06:26:09.412Z,72.58
2022-11-28T06:31:12.969Z,72.96
2022-11-28T06:36:17.507Z,72.59
2022-11-28T06:41:23.120Z,72.99
2022-11-28T06:46:29.072Z,77.33
2022-11-28T06:51:32.461Z,77.33
2022-11-28T06:56:40.700Z,85.64
2022-11-28T07:01:44.115Z,74.93
2022-11-28T07:06:49.971Z,74.53
2022-11-28T07:11:54.555Z,76.35
2022-11-28T07:16:57.858Z,75.46
2022-11-28T07:22:01.291Z,73.69
2022-11-28T07:27:05.905Z,75.77
2022-11-28T07:32:09.279Z,73.40
2022-11-28T07:37:16.613Z,71.92
2022-11-28T07:42:21.296Z,75.30
2022-11-28T07:47:39.394Z,77.05
2022-11-28T07:52:42.669Z,83.44
2022-11-28T07:57:52.054Z,80.36
2022-11-28T08:02:55.402Z,78.46
2022-11-28T08:07:58.815Z,79.22
2022-11-28T08:13:03.575Z,75.84
2022-11-28T08:18:07.162Z,77.40
2022-11-28T08:23:12.963Z,77.98
2022-11-28T08:28:22.332Z,81.45
2022-11-28T08:33:25.740Z,78.32
2022-11-28T08:38:29.085Z,81.20
2022-11-28T08:43:34.837Z,79.59
2022-11-28T08:48:38.518Z,80.33
2022-11-28T08:53:44.002Z,75.31
2022-11-28T08:58:51.960Z,74.24
2022-11-28T09:03:57.838Z,73.75
2022-11-28T09:09:02.070Z,70.92
2022-11-28T09:14:07.018Z,74.02
2022-11-28T09:19:10.856Z,77.36
2022-11-28T09:24:17.237Z,71.45
2022-11-28T09:29:21.868Z,69.86
2022-11-28T09:34:29.991Z,64.55
2022-11-28T09:39:50.139Z,60.92
2022-11-28T09:45:04.467Z,60.85
2022-11-28T09:50:15.395Z,58.37
2022-11-28T09:55:27.672Z,61.48
2022-11-28T10:00:38.187Z,64.49
2022-11-28T10:05:49.720Z,68.79
2022-11-28T10:10:59.658Z,69.07
2022-11-28T10:16:10.588Z,64.84
2022-11-28T10:21:24.459Z,61.83
2022-11-28T10:26:33.747Z,63.88
2022-11-28T10:31:42.645Z,62.73
2022-11-28T10:36:55.512Z,58.60
2022-11-28T10:42:14.004Z,54.99
2022-11-28T10:47:25.330Z,64.01
2022-11-28T10:52:36.047Z,57.66
2022-11-28T10:57:45.216Z,56.41
2022-11-28T11:02:51.178Z,57.50
2022-11-28T11:07:56.695Z,57.48
2022-11-28T11:13:00.969Z,56.34
2022-11-28T11:18:22.213Z,54.67
2022-11-28T11:23:32.776Z,61.33
2022-11-28T11:28:42.705Z,61.00
2022-11-28T11:33:48.702Z,58.29
2022-11-28T11:38:52.285Z,60.71
2022-11-28T11:43:56.048Z,59.56
2022-11-28T11:49:00.845Z,58.93
2022-11-28T11:54:16.598Z,60.48
2022-11-28T11:59:24.380Z,58.70
2022-11-28T12:04:45.778Z,60.92
2022-11-28T12:09:55.058Z,58.01
2022-11-28T12:15:00.566Z,57.13
2022-11-28T12:20:20.105Z,61.72
2022-11-28T12:25:28.428Z,67.20
2022-11-28T12:30:46.805Z,65.88
2022-11-28T12:36:03.419Z,65.98
2022-11-28T12:41:21.084Z,65.58
2022-11-28T12:46:32.375Z,65.13
2022-11-28T12:51:45.354Z,64.99
2022-11-28T12:56:56.241Z,63.30
2022-11-28T13:02:11.878Z,58.79
2022-11-28T13:07:25.821Z,56.84
2022-11-28T13:12:38.748Z,55.24
2022-11-28T13:17:48.290Z,58.98
2022-11-28T13:23:01.273Z,55.68
2022-11-28T13:28:10.177Z,53.29
2022-11-28T13:33:26.815Z,50.61
2022-11-28T13:38:57.438Z,52.23
2022-11-28T13:44:15.699Z,54.98
2022-11-28T13:49:21.535Z,53.02
2022-11-28T13:54:45.688Z,55.17
2022-11-28T13:59:53.453Z,53.42
2022-11-28T14:04:59.976Z,51.11
2022-11-28T14:10:23.122Z,51.14
2022-11-28T14:15:34.658Z,51.42
2022-11-28T14:20:44.880Z,52.46
2022-11-28T14:25:52.560Z,77.52
2022-11-28T14:31:06.378Z,52.73
2022-11-28T14:36:34.671Z,56.03
2022-11-28T14:41:53.098Z,56.95
2022-11-28T14:47:15.525Z,58.49
2022-11-28T14:52:38.626Z,55.97
2022-11-28T14:57:54.681Z,61.79
2022-11-28T15:03:13.311Z,59.25
2022-11-28T15:08:21.867Z,57.24
2022-11-28T15:13:34.445Z,64.22
2022-11-28T15:18:48.231Z,63.95
2022-11-28T15:23:57.222Z,69.38
2022-11-28T15:29:09.142Z,69.32
2022-11-28T15:34:23.548Z,68.33
2022-11-28T15:39:32.204Z,56.92
2022-11-28T15:44:36.583Z,54.47
2022-11-28T15:49:43.124Z,53.95
2022-11-28T15:54:51.494Z,53.87
2022-11-28T15:59:57.261Z,50.30
2022-11-28T16:05:06.308Z,58.36
2022-11-28T16:10:22.101Z,52.66
2022-11-28T16:15:27.942Z,71.61
2022-11-28T16:20:36.307Z,59.71
2022-11-28T16:25:39.591Z,57.24
2022-11-28T16:30:44.728Z,56.39
2022-11-28T16:35:49.397Z,54.82
2022-11-28T16:41:00.845Z,56.45
2022-11-28T16:46:06.564Z,55.59
2022-11-28T16:51:25.420Z,55.94
2022-11-28T16:56:44.076Z,52.87
2022-11-28T17:01:53.134Z,51.65
2022-11-28T17:06:58.388Z,51.59
2022-11-28T17:12:06.004Z,54.17
2022-11-28T17:17:14.315Z,53.11
2022-11-28T17:22:21.549Z,52.74
2022-11-28T17:27:28.922Z,54.40
2022-11-28T17:32:38.236Z,60.15
2022-11-28T17:37:43.934Z,68.75
2022-11-28T17:42:48.629Z,61.62
2022-11-28T17:47:54.343Z,60.81
2022-11-28T17:52:57.718Z,52.28
2022-11-28T17:58:02.461Z,56.02
2022-11-28T18:03:05.751Z,55.26
2022-11-28T18:08:09.161Z,55.23
2022-11-28T18:13:16.343Z,54.66
2022-11-28T18:18:19.804Z,58.12
2022-11-28T18:23:25.597Z,56.46
2022-11-28T18:28:30.343Z,60.63
2022-11-28T18:33:34.962Z,56.54
2022-11-28T18:38:38.560Z,56.18
2022-11-28T18:43:46.198Z,56.07
2022-11-28T18:48:52.116Z,57.30
2022-11-28T18:53:56.615Z,59.13
2022-11-28T18:59:04.286Z,75.91
2022-11-28T19:04:12.244Z,61.89
2022-11-28T19:09:19.180Z,60.31
2022-11-28T19:14:23.918Z,64.34
2022-11-28T19:19:28.244Z,62.82
2022-11-28T19:24:33.989Z,61.07
2022-11-28T19:29:41.556Z,58.44
2022-11-28T19:34:52.334Z,55.45
2022-11-28T19:39:59.746Z,58.30
2022-11-28T19:45:10.510Z,54.23
2022-11-28T19:50:14.015Z,56.66
2022-11-28T19:55:17.462Z,54.16
2022-11-28T20:00:22.710Z,53.19
2022-11-28T20:05:28.409Z,54.71
2022-11-28T20:10:31.696Z,58.68
2022-11-28T20:15:38.932Z,51.96
2022-11-28T20:20:42.396Z,49.37
2022-11-28T20:25:45.714Z,44.90
2022-11-28T20:30:50.685Z,42.07
2022-11-28T20:35:58.480Z,42.62
2022-11-28T20:41:04.646Z,41.67
2022-11-28T20:46:11.131Z,41.12
2022-11-28T20:51:15.753Z,43.53
2022-11-28T20:56:20.825Z,41.70
2022-11-28T21:01:27.131Z,41.97
2022-11-28T21:06:33.228Z,42.25
2022-11-28T21:11:56.343Z,44.15
2022-11-28T21:17:01.455Z,40.70
2022-11-28T21:22:04.759Z,40.09
2022-11-28T21:27:10.370Z,41.46
2022-11-28T21:32:16.275Z,42.60
2022-11-28T21:37:19.765Z,43.16
2022-11-28T21:42:23.013Z,44.71
2022-11-28T21:47:27.737Z,45.49
2022-11-28T21:52:30.998Z,42.72
2022-11-28T21:57:34.254Z,42.60
2022-11-28T22:02:46.267Z,42.00
2022-11-28T22:07:52.244Z,39.29
2022-11-28T22:12:55.574Z,41.64
2022-11-28T22:18:00.279Z,43.49
2022-11-28T22:23:04.658Z,45.92
2022-11-28T22:28:08.739Z,43.48
2022-11-28T22:33:13.407Z,42.11
2022-11-28T22:38:17.999Z,43.97
2022-11-28T22:43:21.808Z,45.22
2022-11-28T22:48:27.253Z,43.76
2022-11-28T22:53:33.646Z,46.91
2022-11-28T22:58:42.285Z,47.72
2022-11-28T23:03:48.268Z,45.00
2022-11-28T23:08:51.730Z,45.73
2022-11-28T23:13:55.368Z,45.16
2022-11-28T23:19:01.564Z,44.47
2022-11-28T23:24:05.609Z,43.88
2022-11-28T23:29:09.846Z,42.37
2022-11-28T23:34:15.225Z,38.17
2022-11-28T23:39:22.977Z,37.04
2022-11-28T23:44:26.432Z,34.92
2022-11-28T23:49:34.431Z,62.46
2022-11-28T23:54:37.724Z,39.05
2022-11-28T23:59:40.957Z,38.09
